BGO weather

Bergen Airport Flesland
Bergen, Hordaland, Norway

Public forecast

Using degrees Celsius for public forecast. Weather courtesy of forecast.io.

Current aviation weather report (METAR) for Bergen Airport Flesland

Retrieved 2019/11/12 20:20 UTC (0 seconds ago):

ENBR 122020Z 09003KT 9999 -SHRA FEW010 SCT022 BKN030 03/02 Q0994 TEMPO SHRA SCT018CB RMK WIND 1200FT 20005KT

Aviation forecast (TAF) for Bergen Airport Flesland

Retrieved 2019/11/12 18:57 UTC (1 hour ago):

TAF ENBR 121700Z 1218/1318 VRB07KT 9999 -RA SCT012 BKN030 BECMG 1219/1221 14010KT TEMPO 1218/1306 BKN012